createdAt,value
2023-01-19T00:00:18.183Z,-0.0714286
2023-01-19T00:01:18.116Z,-0.0714286
2023-01-19T00:02:18.138Z,-0.0714286
2023-01-19T00:03:18.169Z,-0.0714286
2023-01-19T00:04:18.209Z,-0.0714286
2023-01-19T00:05:18.257Z,-0.0714286
2023-01-19T00:06:18.304Z,-0.0714286
2023-01-19T00:07:18.315Z,-0.0714286
2023-01-19T00:08:18.349Z,-0.0714286
2023-01-19T00:09:18.392Z,-0.0714286
2023-01-19T00:10:18.436Z,-0.0714286
2023-01-19T00:11:18.477Z,-0.142857
2023-01-19T00:12:18.509Z,-0.142857
2023-01-19T00:13:18.549Z,-0.142857
2023-01-19T00:14:18.576Z,-0.142857
2023-01-19T00:15:18.617Z,-0.142857
2023-01-19T00:16:18.728Z,-0.142857
2023-01-19T00:17:18.694Z,-0.142857
2023-01-19T00:18:18.731Z,-0.142857
2023-01-19T00:19:18.754Z,-0.142857
2023-01-19T00:20:18.789Z,-0.142857
2023-01-19T00:21:18.844Z,-0.142857
2023-01-19T00:22:18.850Z,-0.142857
2023-01-19T00:23:18.894Z,-0.142857
2023-01-19T00:24:18.928Z,-0.214286
2023-01-19T00:25:18.964Z,-0.214286
2023-01-19T00:26:19.030Z,-0.214286
2023-01-19T00:27:19.047Z,-0.214286
2023-01-19T00:28:19.084Z,-0.285714
2023-01-19T00:29:19.123Z,-0.285714
2023-01-19T00:30:19.147Z,-0.285714
2023-01-19T00:31:19.225Z,-0.357143
2023-01-19T00:32:19.230Z,-0.357143
2023-01-19T00:33:19.252Z,-0.357143
2023-01-19T00:34:19.290Z,-0.357143
2023-01-19T00:35:19.326Z,-0.357143
2023-01-19T00:36:19.373Z,-0.357143
2023-01-19T00:37:19.396Z,-0.357143
2023-01-19T00:38:19.424Z,-0.357143
2023-01-19T00:39:19.475Z,-0.357143
2023-01-19T00:40:19.505Z,-0.428571
2023-01-19T00:41:19.543Z,-0.428571
2023-01-19T00:42:19.592Z,-0.428571
2023-01-19T00:43:19.610Z,-0.5
2023-01-19T00:44:19.637Z,-0.5
2023-01-19T00:45:19.672Z,-0.5
2023-01-19T00:46:19.706Z,-0.5
2023-01-19T00:47:19.776Z,-0.5
2023-01-19T00:48:19.783Z,-0.5
2023-01-19T00:49:19.810Z,-0.5
2023-01-19T00:50:19.848Z,-0.5
2023-01-19T00:51:19.895Z,-0.5
2023-01-19T00:52:19.954Z,-0.5
2023-01-19T00:53:19.963Z,-0.5
2023-01-19T00:54:20.007Z,-0.5
2023-01-19T00:55:20.044Z,-0.5
2023-01-19T00:56:20.068Z,-0.5
2023-01-19T00:57:20.108Z,-0.5
2023-01-19T00:58:20.136Z,-0.5
2023-01-19T00:59:20.173Z,-0.5
2023-01-19T01:00:20.214Z,-0.5
2023-01-19T01:01:20.329Z,-0.5
2023-01-19T01:02:20.482Z,-0.5
2023-01-19T01:03:20.346Z,-0.571429
2023-01-19T01:04:20.346Z,-0.571429
2023-01-19T01:05:20.391Z,-0.571429
2023-01-19T01:06:20.422Z,-0.571429
2023-01-19T01:07:20.455Z,-0.571429
2023-01-19T01:08:20.481Z,-0.571429
2023-01-19T01:09:20.519Z,-0.571429
2023-01-19T01:10:20.558Z,-0.571429
2023-01-19T01:11:20.580Z,-0.571429
2023-01-19T01:12:20.613Z,-0.571429
2023-01-19T01:13:22.594Z,-0.571429
2023-01-19T01:14:20.695Z,-0.571429
2023-01-19T01:15:20.717Z,-0.571429
2023-01-19T01:16:20.812Z,-0.571429
2023-01-19T01:17:20.797Z,-0.571429
2023-01-19T01:18:20.820Z,-0.642857
2023-01-19T01:19:20.854Z,-0.642857
2023-01-19T01:20:20.891Z,-0.642857
2023-01-19T01:21:20.911Z,-0.642857
2023-01-19T01:22:20.960Z,-0.642857
2023-01-19T01:23:20.992Z,-0.642857
2023-01-19T01:24:21.022Z,-0.571429
2023-01-19T01:25:21.072Z,-0.642857
2023-01-19T01:26:21.104Z,-0.642857
2023-01-19T01:27:21.132Z,-0.642857
2023-01-19T01:28:21.179Z,-0.642857
2023-01-19T01:29:21.206Z,-0.571429
2023-01-19T01:30:21.237Z,-0.571429
2023-01-19T01:31:21.349Z,-0.571429
2023-01-19T01:32:21.307Z,-0.571429
2023-01-19T01:33:40.593Z,-0.571429
2023-01-19T01:34:21.392Z,-0.571429
2023-01-19T01:35:21.424Z,-0.571429
2023-01-19T01:36:21.468Z,-0.571429
2023-01-19T01:37:21.500Z,-0.571429
2023-01-19T01:38:21.542Z,-0.571429
2023-01-19T01:39:21.582Z,-0.571429
2023-01-19T01:40:21.613Z,-0.571429
2023-01-19T01:41:22.016Z,-0.571429
2023-01-19T01:42:21.683Z,-0.571429
2023-01-19T01:43:21.721Z,-0.571429
2023-01-19T01:44:21.750Z,-0.571429
2023-01-19T01:45:21.797Z,-0.571429
2023-01-19T01:46:21.818Z,-0.571429
2023-01-19T01:47:21.857Z,-0.571429
2023-01-19T01:48:21.881Z,-0.571429
2023-01-19T01:49:21.927Z,-0.571429
2023-01-19T01:50:21.957Z,-0.571429
2023-01-19T01:51:21.981Z,-0.642857
2023-01-19T01:52:22.024Z,-0.642857
2023-01-19T01:53:22.065Z,-0.642857
2023-01-19T01:54:22.100Z,-0.642857
2023-01-19T01:55:22.143Z,-0.642857
2023-01-19T01:56:22.186Z,-0.642857
2023-01-19T01:57:22.209Z,-0.642857
2023-01-19T01:58:22.251Z,-0.642857
2023-01-19T01:59:22.273Z,-0.642857
2023-01-19T02:00:22.320Z,-0.642857
2023-01-19T02:01:22.444Z,-0.642857
2023-01-19T02:02:22.383Z,-0.642857
2023-01-19T02:03:22.427Z,-0.642857
2023-01-19T02:04:22.456Z,-0.642857
2023-01-19T02:05:22.500Z,-0.642857
2023-01-19T02:06:22.530Z,-0.642857
2023-01-19T02:07:22.556Z,-0.642857
2023-01-19T02:08:22.596Z,-0.642857
2023-01-19T02:09:22.638Z,-0.642857
2023-01-19T02:10:22.650Z,-0.642857
2023-01-19T02:11:22.704Z,-0.642857
2023-01-19T02:12:22.718Z,-0.642857
2023-01-19T02:13:22.767Z,-0.642857
2023-01-19T02:14:22.801Z,-0.642857
2023-01-19T02:15:22.831Z,-0.714286
2023-01-19T02:16:22.911Z,-0.714286
2023-01-19T02:17:22.903Z,-0.714286
2023-01-19T02:18:22.948Z,-0.714286
2023-01-19T02:19:22.982Z,-0.714286
2023-01-19T02:20:23.008Z,-0.714286
2023-01-19T02:21:23.052Z,-0.785714
2023-01-19T02:22:23.113Z,-0.714286
2023-01-19T02:23:23.126Z,-0.714286
2023-01-19T02:24:23.162Z,-0.714286
2023-01-19T02:25:23.202Z,-0.714286
2023-01-19T02:26:23.220Z,-0.785714
2023-01-19T02:27:23.254Z,-0.785714
2023-01-19T02:28:23.304Z,-0.785714
2023-01-19T02:29:23.341Z,-0.785714
2023-01-19T02:30:23.431Z,-0.785714
2023-01-19T02:31:23.424Z,-0.785714
2023-01-19T02:32:23.437Z,-0.785714
2023-01-19T02:33:23.474Z,-0.785714
2023-01-19T02:34:23.504Z,-0.785714
2023-01-19T02:35:23.540Z,-0.785714
2023-01-19T02:36:23.611Z,-0.785714
2023-01-19T02:37:23.620Z,-0.785714
2023-01-19T02:38:23.647Z,-0.785714
2023-01-19T02:39:23.693Z,-0.785714
2023-01-19T02:40:23.721Z,-0.785714
2023-01-19T02:41:23.762Z,-0.785714
2023-01-19T02:42:23.780Z,-0.785714
2023-01-19T02:43:23.816Z,-0.785714
2023-01-19T02:44:23.846Z,-0.785714
2023-01-19T02:45:23.880Z,-0.785714
2023-01-19T02:46:23.965Z,-0.785714
2023-01-19T02:47:23.949Z,-0.785714
2023-01-19T02:48:23.976Z,-0.785714
2023-01-19T02:49:24.007Z,-0.785714
2023-01-19T02:50:24.049Z,-0.785714
2023-01-19T02:51:24.081Z,-0.785714
2023-01-19T02:52:24.109Z,-0.785714
2023-01-19T02:53:24.138Z,-0.785714
2023-01-19T02:54:24.187Z,-0.785714
2023-01-19T02:55:24.194Z,-0.785714
2023-01-19T02:56:24.240Z,-0.857143
2023-01-19T02:57:24.272Z,-0.857143
2023-01-19T02:58:24.312Z,-0.785714
2023-01-19T02:59:24.380Z,-0.785714
2023-01-19T03:00:24.379Z,-0.785714
2023-01-19T03:01:24.575Z,-0.857143
2023-01-19T03:02:24.502Z,-0.857143
2023-01-19T03:03:24.491Z,-0.857143
2023-01-19T03:04:24.555Z,-0.857143
2023-01-19T03:05:24.565Z,-0.857143
2023-01-19T03:06:24.638Z,-0.857143
2023-01-19T03:07:24.647Z,-0.857143
2023-01-19T03:08:24.669Z,-0.857143
2023-01-19T03:09:24.698Z,-0.857143
2023-01-19T03:10:24.779Z,-0.857143
2023-01-19T03:11:24.796Z,-0.857143
2023-01-19T03:12:24.823Z,-0.857143
2023-01-19T03:13:24.859Z,-0.857143
2023-01-19T03:14:24.884Z,-0.857143
2023-01-19T03:15:25.025Z,-0.857143
2023-01-19T03:16:24.978Z,-0.857143
2023-01-19T03:17:24.995Z,-0.857143
2023-01-19T03:18:25.048Z,-0.928571
2023-01-19T03:19:25.061Z,-0.928571
2023-01-19T03:20:25.103Z,-0.928571
2023-01-19T03:21:25.138Z,-0.928571
2023-01-19T03:22:25.183Z,-0.928571
2023-01-19T03:23:25.200Z,-0.928571
2023-01-19T03:24:25.227Z,-0.928571
2023-01-19T03:25:25.265Z,-0.928571
2023-01-19T03:26:25.301Z,-0.928571
2023-01-19T03:27:25.345Z,-0.928571
2023-01-19T03:28:25.375Z,-0.928571
2023-01-19T03:29:25.407Z,-0.928571
2023-01-19T03:30:25.440Z,-0.928571
2023-01-19T03:31:25.473Z,-0.928571
2023-01-19T03:32:25.507Z,-0.928571
2023-01-19T03:33:25.544Z,-0.928571
2023-01-19T03:34:25.572Z,-0.928571
2023-01-19T03:35:25.609Z,-0.928571
2023-01-19T03:36:25.641Z,-0.928571
2023-01-19T03:37:25.669Z,-0.928571
2023-01-19T03:38:25.710Z,-0.928571
2023-01-19T03:39:25.737Z,-0.928571
2023-01-19T03:40:25.784Z,-1
2023-01-19T03:41:25.811Z,-1
2023-01-19T03:42:25.843Z,-1
2023-01-19T03:43:25.879Z,-1
2023-01-19T03:44:25.906Z,-1
2023-01-19T03:45:25.959Z,-0.928571
2023-01-19T03:46:26.027Z,-0.928571
2023-01-19T03:47:26.012Z,-0.928571
2023-01-19T03:48:26.051Z,-0.857143
2023-01-19T03:49:26.079Z,-0.857143
2023-01-19T03:50:26.127Z,-0.785714
2023-01-19T03:51:26.161Z,-0.785714
2023-01-19T03:52:26.212Z,-0.785714
2023-01-19T03:53:26.235Z,-0.714286
2023-01-19T03:54:26.269Z,-0.714286
2023-01-19T03:55:26.312Z,-0.714286
2023-01-19T03:56:26.329Z,-0.714286
2023-01-19T03:57:26.373Z,-0.642857
2023-01-19T03:58:26.404Z,-0.642857
2023-01-19T03:59:26.430Z,-0.642857
2023-01-19T04:00:26.471Z,-0.642857
2023-01-19T04:01:26.666Z,-0.642857
2023-01-19T04:02:26.562Z,-0.642857
2023-01-19T04:03:26.581Z,-0.571429
2023-01-19T04:04:26.623Z,-0.571429
2023-01-19T04:05:26.671Z,-0.571429
2023-01-19T04:06:26.689Z,-0.571429
2023-01-19T04:07:26.731Z,-0.5
2023-01-19T04:08:26.763Z,-0.5
2023-01-19T04:09:26.799Z,-0.5
2023-01-19T04:10:26.836Z,-0.5
2023-01-19T04:11:26.877Z,-0.5
2023-01-19T04:12:26.911Z,-0.5
2023-01-19T04:13:26.945Z,-0.5
2023-01-19T04:14:26.978Z,-0.5
2023-01-19T04:15:27.015Z,-0.428571
2023-01-19T04:16:27.048Z,-0.428571
2023-01-19T04:17:27.077Z,-0.428571
2023-01-19T04:18:27.124Z,-0.428571
2023-01-19T04:19:27.168Z,-0.428571
2023-01-19T04:20:27.188Z,-0.428571
2023-01-19T04:21:27.220Z,-0.428571
2023-01-19T04:22:27.256Z,-0.428571
2023-01-19T04:23:27.301Z,-0.428571
2023-01-19T04:24:27.340Z,-0.428571
2023-01-19T04:25:27.361Z,-0.428571
2023-01-19T04:26:27.403Z,-0.428571
2023-01-19T04:27:27.461Z,-0.428571
2023-01-19T04:28:27.498Z,-0.428571
2023-01-19T04:29:27.524Z,-0.428571
2023-01-19T04:30:27.580Z,-0.428571
2023-01-19T04:31:27.705Z,-0.428571
2023-01-19T04:32:27.634Z,-0.428571
2023-01-19T04:33:27.692Z,-0.5
2023-01-19T04:34:27.704Z,-0.5
2023-01-19T04:35:27.749Z,-0.5
2023-01-19T04:36:27.766Z,-0.5
2023-01-19T04:37:27.799Z,-0.5
2023-01-19T04:38:27.855Z,-0.5
2023-01-19T04:39:27.865Z,-0.571429
2023-01-19T04:40:27.902Z,-0.571429
2023-01-19T04:41:29.620Z,-0.571429
2023-01-19T04:42:27.973Z,-0.571429
2023-01-19T04:43:28.018Z,-0.571429
2023-01-19T04:44:28.056Z,-0.571429
2023-01-19T04:45:28.070Z,-0.571429
2023-01-19T04:46:28.129Z,-0.571429
2023-01-19T04:47:28.128Z,-0.642857
2023-01-19T04:48:28.162Z,-0.642857
2023-01-19T04:49:28.235Z,-0.642857
2023-01-19T04:50:28.230Z,-0.642857
2023-01-19T04:51:28.272Z,-0.642857
2023-01-19T04:52:28.304Z,-0.642857
2023-01-19T04:53:28.353Z,-0.642857
2023-01-19T04:54:28.634Z,-0.642857
2023-01-19T04:55:28.413Z,-0.642857
2023-01-19T04:56:28.433Z,-0.642857
2023-01-19T04:57:28.458Z,-0.642857
2023-01-19T04:58:28.523Z,-0.642857
2023-01-19T04:59:28.531Z,-0.642857
2023-01-19T05:00:28.606Z,-0.642857
2023-01-19T05:01:28.696Z,-0.642857
2023-01-19T05:02:28.710Z,-0.571429
2023-01-19T05:03:28.819Z,-0.571429
2023-01-19T05:04:28.702Z,-0.571429
2023-01-19T05:05:28.767Z,-0.571429
2023-01-19T05:06:28.771Z,-0.642857
2023-01-19T05:07:28.806Z,-0.571429
2023-01-19T05:08:28.827Z,-0.571429
2023-01-19T05:09:28.866Z,-0.571429
2023-01-19T05:10:28.917Z,-0.571429
2023-01-19T05:11:28.954Z,-0.571429
2023-01-19T05:12:28.982Z,-0.571429
2023-01-19T05:13:29.018Z,-0.571429
2023-01-19T05:14:29.051Z,-0.571429
2023-01-19T05:15:29.077Z,-0.571429
2023-01-19T05:16:29.121Z,-0.571429
2023-01-19T05:17:29.149Z,-0.571429
2023-01-19T05:18:29.192Z,-0.571429
2023-01-19T05:19:29.224Z,-0.571429
2023-01-19T05:20:29.272Z,-0.571429
2023-01-19T05:21:29.295Z,-0.571429
2023-01-19T05:22:29.339Z,-0.571429
2023-01-19T05:23:29.370Z,-0.571429
2023-01-19T05:24:29.411Z,-0.571429
2023-01-19T05:25:29.435Z,-0.571429
2023-01-19T05:26:29.508Z,-0.571429
2023-01-19T05:27:29.506Z,-0.571429
2023-01-19T05:28:29.548Z,-0.571429
2023-01-19T05:29:29.587Z,-0.571429
2023-01-19T05:30:29.633Z,-0.571429
2023-01-19T05:31:29.812Z,-0.571429
2023-01-19T05:32:29.695Z,-0.571429
2023-01-19T05:33:29.727Z,-0.571429
2023-01-19T05:34:29.770Z,-0.571429
2023-01-19T05:35:35.581Z,-0.571429
2023-01-19T05:36:31.340Z,-0.571429
2023-01-19T05:37:29.877Z,-0.571429
2023-01-19T05:38:35.301Z,-0.571429
2023-01-19T05:39:29.945Z,-0.571429
2023-01-19T05:40:29.988Z,-0.571429
2023-01-19T05:41:30.024Z,-0.571429
2023-01-19T05:42:32.080Z,-0.571429
2023-01-19T05:43:30.086Z,-0.571429
2023-01-19T05:44:30.130Z,-0.5
2023-01-19T05:45:30.177Z,-0.5
2023-01-19T05:46:30.207Z,-0.5
2023-01-19T05:47:30.230Z,-0.5
2023-01-19T05:48:30.279Z,-0.5
2023-01-19T05:49:30.328Z,-0.5
2023-01-19T05:50:30.339Z,-0.5
2023-01-19T05:51:30.373Z,-0.5
2023-01-19T05:52:30.394Z,-0.5
2023-01-19T05:53:30.438Z,-0.5
2023-01-19T05:54:30.494Z,-0.5
2023-01-19T05:55:30.511Z,-0.5
2023-01-19T05:56:30.551Z,-0.5
2023-01-19T05:57:30.575Z,-0.5
2023-01-19T05:58:30.603Z,-0.5
2023-01-19T05:59:30.650Z,-0.5
2023-01-19T06:00:30.683Z,-0.5
2023-01-19T06:01:30.712Z,-0.5
2023-01-19T06:02:30.808Z,-0.5
2023-01-19T06:03:30.862Z,-0.5
2023-01-19T06:04:30.817Z,-0.5
2023-01-19T06:05:30.866Z,-0.5
2023-01-19T06:06:30.900Z,-0.5
2023-01-19T06:07:30.933Z,-0.5
2023-01-19T06:08:30.972Z,-0.5
2023-01-19T06:09:31.011Z,-0.5
2023-01-19T06:10:31.051Z,-0.5
2023-01-19T06:11:31.078Z,-0.5
2023-01-19T06:12:31.112Z,-0.5
2023-01-19T06:13:31.154Z,-0.5
2023-01-19T06:14:31.184Z,-0.5
2023-01-19T06:15:31.237Z,-0.5
2023-01-19T06:16:31.336Z,-0.5
2023-01-19T06:17:31.288Z,-0.5
2023-01-19T06:18:31.323Z,-0.5
2023-01-19T06:19:31.381Z,-0.5
2023-01-19T06:20:31.396Z,-0.5
2023-01-19T06:21:31.459Z,-0.5
2023-01-19T06:22:31.455Z,-0.5
2023-01-19T06:23:31.508Z,-0.5
2023-01-19T06:24:31.531Z,-0.5
2023-01-19T06:25:31.567Z,-0.5
2023-01-19T06:26:31.609Z,-0.5
2023-01-19T06:27:31.639Z,-0.5
2023-01-19T06:28:31.678Z,-0.5
2023-01-19T06:29:31.700Z,-0.5
2023-01-19T06:30:31.812Z,-0.5
2023-01-19T06:31:31.895Z,-0.5
2023-01-19T06:32:31.818Z,-0.5
2023-01-19T06:33:31.867Z,-0.5
2023-01-19T06:34:31.887Z,-0.5
2023-01-19T06:35:31.930Z,-0.5
2023-01-19T06:36:31.988Z,-0.5
2023-01-19T06:37:31.997Z,-0.428571
2023-01-19T06:38:32.022Z,-0.428571
2023-01-19T06:39:32.066Z,-0.428571
2023-01-19T06:40:32.099Z,-0.428571
2023-01-19T06:41:32.146Z,-0.428571
2023-01-19T06:42:32.162Z,-0.428571
2023-01-19T06:43:32.202Z,-0.428571
2023-01-19T06:44:32.227Z,-0.428571
2023-01-19T06:45:32.278Z,-0.428571
2023-01-19T06:46:32.307Z,-0.428571
2023-01-19T06:47:32.347Z,-0.428571
2023-01-19T06:48:32.392Z,-0.428571
2023-01-19T06:49:32.415Z,-0.5
2023-01-19T06:50:32.444Z,-0.5
2023-01-19T06:51:32.488Z,-0.5
2023-01-19T06:52:32.513Z,-0.5
2023-01-19T06:53:32.555Z,-0.5
2023-01-19T06:54:32.604Z,-0.5
2023-01-19T06:55:32.641Z,-0.5
2023-01-19T06:56:32.682Z,-0.5
2023-01-19T06:57:32.711Z,-0.5
2023-01-19T06:58:32.763Z,-0.5
2023-01-19T06:59:32.789Z,-0.5
2023-01-19T07:00:32.832Z,-0.5
2023-01-19T07:01:33.053Z,-0.5
2023-01-19T07:02:33.161Z,-0.5
2023-01-19T07:03:32.927Z,-0.5
2023-01-19T07:04:32.957Z,-0.5
2023-01-19T07:05:32.995Z,-0.5
2023-01-19T07:06:33.035Z,-0.5
2023-01-19T07:07:33.059Z,-0.5
2023-01-19T07:08:33.099Z,-0.5
2023-01-19T07:09:33.135Z,-0.5
2023-01-19T07:11:25.494Z,-0.5
2023-01-19T07:11:33.244Z,-0.5
2023-01-19T07:12:33.279Z,-0.5
2023-01-19T07:13:33.273Z,-0.428571
2023-01-19T07:14:33.308Z,-0.428571
2023-01-19T07:15:33.351Z,-0.5
2023-01-19T07:16:33.431Z,-0.5
2023-01-19T07:17:33.430Z,-0.5
2023-01-19T07:18:33.451Z,-0.5
2023-01-19T07:19:33.501Z,-0.5
2023-01-19T07:20:33.529Z,-0.5
2023-01-19T07:21:33.568Z,-0.5
2023-01-19T07:22:33.603Z,-0.428571
2023-01-19T07:23:33.643Z,-0.428571
2023-01-19T07:24:33.709Z,-0.428571
2023-01-19T07:25:33.726Z,-0.428571
2023-01-19T07:26:33.754Z,-0.428571
2023-01-19T07:27:33.792Z,-0.428571
2023-01-19T07:28:33.858Z,-0.428571
2023-01-19T07:29:33.844Z,-0.5
2023-01-19T07:30:34.013Z,-0.428571
2023-01-19T07:31:34.055Z,-0.5
2023-01-19T07:32:33.932Z,-0.5
2023-01-19T07:33:33.996Z,-0.5
2023-01-19T07:34:34.005Z,-0.428571
2023-01-19T07:35:34.038Z,-0.428571
2023-01-19T07:36:34.088Z,-0.428571
2023-01-19T07:37:34.116Z,-0.428571
2023-01-19T07:38:34.150Z,-0.428571
2023-01-19T07:39:34.173Z,-0.428571
2023-01-19T07:40:34.209Z,-0.428571
2023-01-19T07:41:34.242Z,-0.428571
2023-01-19T07:42:34.271Z,-0.428571
2023-01-19T07:43:34.322Z,-0.428571
2023-01-19T07:44:34.366Z,-0.428571
2023-01-19T07:45:34.388Z,-0.357143
2023-01-19T07:46:34.426Z,-0.357143
2023-01-19T07:47:34.451Z,-0.357143
2023-01-19T07:48:34.487Z,-0.357143
2023-01-19T07:49:34.551Z,-0.285714
2023-01-19T07:50:34.569Z,-0.285714
2023-01-19T07:51:34.599Z,-0.285714
2023-01-19T07:52:34.639Z,-0.285714
2023-01-19T07:53:34.668Z,-0.214286
2023-01-19T07:54:34.766Z,-0.214286
2023-01-19T07:55:34.735Z,-0.214286
2023-01-19T07:56:34.754Z,-0.214286
2023-01-19T07:57:34.798Z,-0.214286
2023-01-19T07:58:34.841Z,-0.214286
2023-01-19T07:59:34.890Z,-0.142857
2023-01-19T08:00:34.893Z,-0.142857
2023-01-19T08:01:34.983Z,-0.142857
2023-01-19T08:02:34.954Z,-0.142857
2023-01-19T08:03:34.986Z,-0.0714286
2023-01-19T08:04:35.079Z,-0.0714286
2023-01-19T08:05:35.062Z,-0.0714286
2023-01-19T08:06:35.096Z,-0.0714286
2023-01-19T08:07:41.132Z,-0.0714286
2023-01-19T08:11:28.275Z,0.0714286
2023-01-19T08:12:28.321Z,0.0714286
2023-01-19T08:13:28.354Z,0.0714286
2023-01-19T08:14:28.381Z,0.142857
2023-01-19T08:15:28.483Z,0.214286
2023-01-19T08:16:28.455Z,0.285714
2023-01-19T08:17:28.488Z,0.428571
2023-01-19T08:18:28.512Z,0.5
2023-01-19T08:19:28.557Z,0.571429
2023-01-19T08:20:28.624Z,0.714286
2023-01-19T08:21:28.616Z,0.785714
2023-01-19T08:22:28.649Z,0.857143
2023-01-19T08:23:28.702Z,1
2023-01-19T08:24:28.720Z,1.14286
2023-01-19T08:25:28.768Z,1.21429
2023-01-19T08:26:28.784Z,1.28571
2023-01-19T08:27:28.848Z,1.35714
2023-01-19T08:28:28.852Z,1.35714
2023-01-19T08:29:28.898Z,1.42857
2023-01-19T08:30:28.917Z,1.5
2023-01-19T08:31:29.066Z,1.5
2023-01-19T08:32:29.066Z,1.57143
2023-01-19T08:33:29.038Z,1.71429
2023-01-19T08:34:29.064Z,1.78571
2023-01-19T08:35:29.103Z,1.85714
2023-01-19T08:36:29.142Z,1.85714
2023-01-19T08:37:29.176Z,1.85714
2023-01-19T08:38:29.214Z,1.85714
2023-01-19T08:39:29.244Z,1.85714
2023-01-19T08:40:29.290Z,1.78571
2023-01-19T08:41:29.314Z,1.78571
2023-01-19T08:42:29.352Z,1.71429
2023-01-19T08:43:29.389Z,1.71429
2023-01-19T08:44:29.431Z,1.71429
2023-01-19T08:45:29.452Z,1.64286
2023-01-19T08:46:29.506Z,1.64286
2023-01-19T08:47:29.704Z,1.57143
2023-01-19T08:48:29.575Z,1.57143
2023-01-19T08:49:29.612Z,1.57143
2023-01-19T08:50:29.639Z,1.5
2023-01-19T08:51:29.663Z,1.5
2023-01-19T08:52:30.036Z,1.5
2023-01-19T08:53:29.765Z,1.5
2023-01-19T08:54:29.770Z,1.5
2023-01-19T08:55:29.816Z,1.5
2023-01-19T08:56:29.833Z,1.5
2023-01-19T08:57:29.871Z,1.57143
2023-01-19T08:58:29.939Z,1.71429
2023-01-19T08:59:29.983Z,1.78571
2023-01-19T09:00:29.977Z,1.92857
2023-01-19T09:01:30.115Z,2
2023-01-19T09:02:30.150Z,2.07143
2023-01-19T09:03:30.064Z,2.14286
2023-01-19T09:04:30.113Z,2.14286
2023-01-19T09:05:30.137Z,2.21429
2023-01-19T09:06:30.166Z,2.28571
2023-01-19T09:07:32.437Z,2.28571
2023-01-19T09:08:30.227Z,2.42857
2023-01-19T09:09:30.271Z,2.5
2023-01-19T09:10:30.309Z,2.5
2023-01-19T09:11:30.342Z,2.57143
2023-01-19T09:12:30.381Z,2.64286
2023-01-19T09:13:30.424Z,2.71429
2023-01-19T09:14:30.456Z,2.71429
2023-01-19T09:15:30.495Z,2.71429
2023-01-19T09:16:30.518Z,2.78571
2023-01-19T09:17:30.560Z,2.71429
2023-01-19T09:18:30.594Z,2.71429
2023-01-19T09:19:30.687Z,2.71429
2023-01-19T09:20:30.663Z,2.71429
2023-01-19T09:21:30.698Z,2.64286
2023-01-19T09:22:30.739Z,2.64286
2023-01-19T09:23:30.817Z,2.64286
2023-01-19T09:24:30.826Z,2.64286
2023-01-19T09:25:30.846Z,2.64286
2023-01-19T09:26:32.888Z,2.64286
2023-01-19T09:27:30.934Z,2.64286
2023-01-19T09:28:31.214Z,2.64286
2023-01-19T09:29:30.998Z,2.57143
2023-01-19T09:30:31.078Z,2.57143
2023-01-19T09:31:31.193Z,2.57143
2023-01-19T09:32:31.112Z,2.57143
2023-01-19T09:33:31.114Z,2.5
2023-01-19T09:34:31.161Z,2.5
2023-01-19T09:35:31.198Z,2.5
2023-01-19T09:36:31.223Z,2.42857
2023-01-19T09:37:31.254Z,2.42857
2023-01-19T09:38:31.303Z,2.42857
2023-01-19T09:39:31.425Z,2.42857
2023-01-19T09:40:31.359Z,2.35714
2023-01-19T09:41:31.387Z,2.35714
2023-01-19T09:42:31.424Z,2.35714
2023-01-19T09:43:31.464Z,2.35714
2023-01-19T09:44:31.518Z,2.35714
2023-01-19T09:45:31.533Z,2.35714
2023-01-19T09:46:31.589Z,2.35714
2023-01-19T09:47:31.594Z,2.35714
2023-01-19T09:48:31.653Z,2.35714
2023-01-19T09:49:31.664Z,2.35714
2023-01-19T09:50:31.701Z,2.35714
2023-01-19T09:51:31.724Z,2.35714
2023-01-19T09:52:31.796Z,2.35714
2023-01-19T09:53:31.800Z,2.35714
2023-01-19T09:54:31.835Z,2.35714
2023-01-19T09:55:31.867Z,2.35714
2023-01-19T09:56:31.913Z,2.35714
2023-01-19T09:57:31.935Z,2.35714
2023-01-19T09:58:31.966Z,2.42857
2023-01-19T09:59:32.011Z,2.42857
2023-01-19T10:00:32.065Z,2.42857
2023-01-19T10:01:34.614Z,2.42857
2023-01-19T10:02:32.105Z,2.42857
2023-01-19T10:03:32.123Z,2.42857
2023-01-19T10:04:32.156Z,2.42857
2023-01-19T10:05:32.199Z,2.42857
2023-01-19T10:06:32.234Z,2.42857
2023-01-19T10:07:32.270Z,2.42857
2023-01-19T10:08:32.304Z,2.42857
2023-01-19T10:09:32.341Z,2.42857
2023-01-19T10:10:32.383Z,2.42857
2023-01-19T10:11:41.960Z,2.42857
2023-01-19T10:12:32.448Z,2.5
2023-01-19T10:13:32.491Z,2.5
2023-01-19T10:14:32.519Z,2.5
2023-01-19T10:15:32.563Z,2.5
2023-01-19T10:16:32.581Z,2.5
2023-01-19T10:17:32.622Z,2.5
2023-01-19T10:18:32.661Z,2.5
2023-01-19T10:19:32.699Z,2.57143
2023-01-19T10:20:32.729Z,2.57143
2023-01-19T10:21:32.795Z,2.57143
2023-01-19T10:22:32.800Z,2.57143
2023-01-19T10:23:32.858Z,2.57143
2023-01-19T10:24:32.923Z,2.57143
2023-01-19T10:25:32.947Z,2.57143
2023-01-19T10:26:32.955Z,2.64286
2023-01-19T10:27:32.987Z,2.64286
2023-01-19T10:28:33.054Z,2.64286
2023-01-19T10:29:33.057Z,2.64286
2023-01-19T10:30:33.067Z,2.64286
2023-01-19T10:31:33.275Z,2.71429
2023-01-19T10:32:33.147Z,2.71429
2023-01-19T10:33:33.180Z,2.71429
2023-01-19T10:34:33.203Z,2.71429
2023-01-19T10:35:33.250Z,2.71429
2023-01-19T10:36:33.313Z,2.78571
2023-01-19T10:37:33.324Z,2.78571
2023-01-19T10:38:33.394Z,2.78571
2023-01-19T10:39:36.940Z,2.78571
2023-01-19T10:40:33.494Z,2.85714
2023-01-19T10:41:33.512Z,2.85714
2023-01-19T10:42:33.558Z,2.85714
2023-01-19T10:43:33.546Z,2.85714
2023-01-19T10:44:33.572Z,2.92857
2023-01-19T10:45:35.954Z,2.92857
2023-01-19T10:46:33.694Z,2.92857
2023-01-19T10:47:33.680Z,2.92857
2023-01-19T10:48:33.731Z,3
2023-01-19T10:49:33.783Z,3
2023-01-19T10:50:33.793Z,3
2023-01-19T10:51:33.863Z,3
2023-01-19T10:52:33.877Z,3
2023-01-19T10:53:33.888Z,3.07143
2023-01-19T10:54:33.955Z,3.07143
2023-01-19T10:55:33.967Z,3.07143
2023-01-19T10:56:34.001Z,3.07143
2023-01-19T10:57:34.051Z,3.14286
2023-01-19T10:58:34.185Z,3.14286
2023-01-19T10:59:34.205Z,3.14286
2023-01-19T11:00:34.146Z,3.14286
2023-01-19T11:01:34.351Z,3.14286
2023-01-19T11:02:34.457Z,3.21429
2023-01-19T11:03:34.303Z,3.21429
2023-01-19T11:04:34.325Z,3.21429
2023-01-19T11:05:34.317Z,3.28571
2023-01-19T11:06:34.355Z,3.28571
2023-01-19T11:07:34.401Z,3.35714
2023-01-19T11:08:34.411Z,3.35714
2023-01-19T11:09:34.447Z,3.42857
2023-01-19T11:10:34.496Z,3.42857
2023-01-19T11:11:34.526Z,3.42857
2023-01-19T11:12:34.560Z,3.5
2023-01-19T11:13:34.605Z,3.5
2023-01-19T11:14:34.630Z,3.5
2023-01-19T11:15:34.652Z,3.57143
2023-01-19T11:16:34.790Z,3.57143
2023-01-19T11:17:34.720Z,3.57143
2023-01-19T11:18:34.769Z,3.57143
2023-01-19T11:19:34.789Z,3.64286
2023-01-19T11:20:34.824Z,3.64286
2023-01-19T11:21:34.880Z,3.71429
2023-01-19T11:22:34.899Z,3.71429
2023-01-19T11:23:34.927Z,3.71429
2023-01-19T11:24:34.944Z,3.78571
2023-01-19T11:25:34.977Z,3.78571
2023-01-19T11:26:35.031Z,3.78571
2023-01-19T11:27:35.065Z,3.85714
2023-01-19T11:28:35.083Z,3.85714
2023-01-19T11:29:35.127Z,3.85714
2023-01-19T11:30:35.151Z,3.85714
2023-01-19T11:31:35.262Z,3.92857
2023-01-19T11:32:35.224Z,3.92857
2023-01-19T11:33:35.259Z,4
2023-01-19T11:34:35.307Z,4
2023-01-19T11:35:35.350Z,4
2023-01-19T11:36:35.380Z,4
2023-01-19T11:37:35.409Z,4.07143
2023-01-19T11:38:35.468Z,4.07143
2023-01-19T11:39:35.484Z,4.14286
2023-01-19T11:40:35.530Z,4.14286
2023-01-19T11:41:35.553Z,4.14286
2023-01-19T11:42:35.718Z,4.14286
2023-01-19T11:43:48.280Z,4.21429
2023-01-19T11:44:35.693Z,4.21429
2023-01-19T11:45:35.728Z,4.21429
2023-01-19T11:46:35.739Z,4.28571
2023-01-19T11:47:35.801Z,4.28571
2023-01-19T11:48:35.806Z,4.28571
2023-01-19T11:49:35.841Z,4.28571
2023-01-19T11:50:35.880Z,4.28571
2023-01-19T11:51:35.932Z,4.35714
2023-01-19T11:52:36.014Z,4.35714
2023-01-19T11:53:35.998Z,4.35714
2023-01-19T11:54:36.020Z,4.35714
2023-01-19T11:55:36.050Z,4.35714
2023-01-19T11:56:36.081Z,4.42857
2023-01-19T11:57:36.114Z,4.42857
2023-01-19T11:58:36.199Z,4.42857
2023-01-19T11:59:36.193Z,4.42857
2023-01-19T12:00:36.216Z,4.5
2023-01-19T12:01:36.260Z,4.5
2023-01-19T12:02:36.308Z,4.5
2023-01-19T12:03:36.444Z,4.5